createdAt,value
2022-11-16T00:00:51.380Z,62.77
2022-11-16T00:03:20.221Z,62.81
2022-11-16T00:05:47.701Z,62.85
2022-11-16T00:08:15.153Z,62.97
2022-11-16T00:10:42.595Z,62.80
2022-11-16T00:13:10.032Z,62.88
2022-11-16T00:15:37.477Z,62.84
2022-11-16T00:18:05.213Z,62.80
2022-11-16T00:20:33.985Z,62.90
2022-11-16T00:23:01.404Z,62.84
2022-11-16T00:25:28.846Z,62.89
2022-11-16T00:27:56.282Z,62.93
2022-11-16T00:30:23.732Z,62.77
2022-11-16T00:32:51.173Z,62.77
2022-11-16T00:35:18.647Z,62.96
2022-11-16T00:37:47.420Z,62.96
2022-11-16T00:40:14.962Z,62.76
2022-11-16T00:42:42.432Z,62.83
2022-11-16T00:45:10.968Z,62.80
2022-11-16T00:47:38.537Z,62.93
2022-11-16T00:50:06.819Z,63.06
2022-11-16T00:52:34.248Z,63.02
2022-11-16T00:55:03.109Z,63.00
2022-11-16T00:57:30.535Z,62.96
2022-11-16T00:59:57.990Z,62.88
2022-11-16T01:02:25.452Z,62.91
2022-11-16T01:04:52.877Z,62.99
2022-11-16T01:07:20.371Z,62.98
2022-11-16T01:09:47.854Z,62.93
2022-11-16T01:12:17.139Z,62.96
2022-11-16T01:14:45.792Z,63.04
2022-11-16T01:17:13.235Z,63.04
2022-11-16T01:19:40.736Z,62.80
2022-11-16T01:22:08.268Z,62.92
2022-11-16T01:24:35.701Z,62.94
2022-11-16T01:27:03.108Z,63.01
2022-11-16T01:29:31.871Z,63.08
2022-11-16T01:31:59.315Z,62.98
2022-11-16T01:34:26.757Z,62.90
2022-11-16T01:36:54.186Z,62.99
2022-11-16T01:39:21.648Z,62.81
2022-11-16T01:41:49.079Z,63.06
2022-11-16T01:44:54.123Z,62.95
2022-11-16T01:47:22.852Z,63.10
2022-11-16T01:49:52.676Z,63.11
2022-11-16T01:52:23.252Z,63.10
2022-11-16T01:54:51.225Z,63.10
2022-11-16T01:57:23.488Z,63.00
2022-11-16T01:59:51.125Z,62.89
2022-11-16T02:02:18.539Z,63.11
2022-11-16T02:04:47.536Z,63.12
2022-11-16T02:07:17.778Z,63.14
2022-11-16T02:09:55.392Z,63.04
2022-11-16T02:12:48.093Z,63.07
2022-11-16T02:15:20.400Z,63.10
2022-11-16T02:17:49.556Z,63.13
2022-11-16T02:20:39.912Z,63.08
2022-11-16T02:23:20.906Z,63.18
2022-11-16T02:25:52.357Z,63.07
2022-11-16T02:28:30.188Z,63.18
2022-11-16T02:30:59.043Z,63.08
2022-11-16T02:33:29.740Z,63.15
2022-11-16T02:35:57.776Z,63.12
2022-11-16T02:38:27.092Z,63.21
2022-11-16T02:40:57.052Z,63.14
2022-11-16T02:43:27.747Z,63.11
2022-11-16T02:45:56.410Z,63.19
2022-11-16T02:48:27.056Z,63.13
2022-11-16T02:50:54.497Z,63.06
2022-11-16T02:53:22.271Z,63.22
2022-11-16T02:55:49.754Z,63.25
2022-11-16T02:58:18.842Z,63.25
2022-11-16T03:00:48.171Z,63.26
2022-11-16T03:03:19.863Z,63.30
2022-11-16T03:05:49.627Z,63.18
2022-11-16T03:08:19.893Z,63.28
2022-11-16T03:11:09.554Z,63.21
2022-11-16T03:13:37.130Z,63.15
2022-11-16T03:16:08.799Z,63.32
2022-11-16T03:18:36.603Z,63.35
2022-11-16T03:21:09.875Z,63.25
2022-11-16T03:23:37.323Z,63.29
2022-11-16T03:26:06.224Z,63.29
2022-11-16T03:28:35.267Z,63.26
2022-11-16T03:31:06.627Z,63.20
2022-11-16T03:33:35.506Z,63.19
2022-11-16T03:36:04.547Z,63.37
2022-11-16T03:38:34.379Z,63.13
2022-11-16T03:41:03.526Z,63.44
2022-11-16T03:43:31.184Z,63.37
2022-11-16T03:46:00.091Z,63.29
2022-11-16T03:48:33.338Z,63.39
2022-11-16T03:51:01.030Z,63.32
2022-11-16T03:53:28.511Z,63.36
2022-11-16T03:55:57.271Z,63.41
2022-11-16T03:58:24.705Z,63.34
2022-11-16T04:00:52.189Z,63.40
2022-11-16T04:03:19.669Z,63.44
2022-11-16T04:06:05.693Z,63.49
2022-11-16T04:08:50.930Z,63.37
2022-11-16T04:11:38.454Z,63.35
2022-11-16T04:14:23.778Z,63.46
2022-11-16T04:17:08.937Z,63.46
2022-11-16T04:19:58.081Z,63.42
2022-11-16T04:22:44.475Z,63.45
2022-11-16T04:25:13.132Z,63.50
2022-11-16T04:27:59.681Z,63.45
2022-11-16T04:30:47.095Z,63.35
2022-11-16T04:33:32.380Z,63.25
2022-11-16T04:36:20.589Z,63.31
2022-11-16T04:38:48.453Z,63.19
2022-11-16T04:41:29.891Z,63.25
2022-11-16T04:43:59.306Z,63.06
2022-11-16T04:46:44.587Z,63.25
2022-11-16T04:49:12.051Z,63.24
2022-11-16T04:51:39.517Z,63.17
2022-11-16T04:54:06.948Z,63.24
2022-11-16T04:56:34.407Z,63.35
2022-11-16T04:59:03.227Z,63.30
2022-11-16T05:01:48.367Z,63.18
2022-11-16T05:04:15.847Z,63.30
2022-11-16T05:06:43.282Z,63.32
2022-11-16T05:09:10.716Z,63.33
2022-11-16T05:11:38.169Z,63.37
2022-11-16T05:14:06.928Z,63.20
2022-11-16T05:16:34.484Z,63.29
2022-11-16T05:19:19.757Z,63.28
2022-11-16T05:21:47.472Z,63.27
2022-11-16T05:24:32.496Z,63.27
2022-11-16T05:27:00.092Z,63.27
2022-11-16T05:29:28.860Z,63.22
2022-11-16T05:31:56.306Z,63.28
2022-11-16T05:34:23.769Z,63.25
2022-11-16T05:36:51.209Z,63.35
2022-11-16T05:39:19.206Z,63.37
2022-11-16T05:41:46.650Z,63.38
2022-11-16T05:44:14.128Z,63.33
2022-11-16T05:46:43.106Z,63.32
2022-11-16T05:49:11.799Z,63.42
2022-11-16T05:51:39.938Z,63.35
2022-11-16T05:54:07.673Z,63.34
2022-11-16T05:56:35.499Z,63.53
2022-11-16T05:59:02.998Z,63.31
2022-11-16T06:01:30.472Z,63.42
2022-11-16T06:04:01.233Z,63.41
2022-11-16T06:06:28.672Z,63.52
2022-11-16T06:08:56.099Z,63.40
2022-11-16T06:11:23.650Z,63.39
2022-11-16T06:13:51.223Z,63.36
2022-11-16T06:16:18.731Z,63.38
2022-11-16T06:18:47.085Z,63.70
2022-11-16T06:21:16.738Z,63.50
2022-11-16T06:23:44.344Z,63.37
2022-11-16T06:26:11.836Z,63.39
2022-11-16T06:28:39.296Z,63.44
2022-11-16T06:31:06.843Z,63.34
2022-11-16T06:33:34.304Z,63.43
2022-11-16T06:36:01.791Z,63.40
2022-11-16T06:38:30.605Z,63.36
2022-11-16T06:40:58.985Z,63.26
2022-11-16T06:43:26.529Z,63.35
2022-11-16T06:45:54.889Z,63.32
2022-11-16T06:48:22.514Z,63.28
2022-11-16T06:50:50.264Z,63.34
2022-11-16T06:53:17.775Z,63.56
2022-11-16T06:55:46.507Z,63.59
2022-11-16T06:58:13.963Z,63.78
2022-11-16T07:00:41.412Z,63.73
2022-11-16T07:03:08.835Z,63.89
2022-11-16T07:05:40.050Z,64.20
2022-11-16T07:08:07.508Z,64.21
2022-11-16T07:10:34.995Z,64.26
2022-11-16T07:13:04.406Z,64.28
2022-11-16T07:15:31.939Z,64.32
2022-11-16T07:18:04.065Z,64.56
2022-11-16T07:20:31.491Z,65.11
2022-11-16T07:23:00.783Z,65.69
2022-11-16T07:25:28.273Z,66.33
2022-11-16T07:27:55.745Z,66.54
2022-11-16T07:30:24.531Z,66.90
2022-11-16T07:32:51.995Z,67.08
2022-11-16T07:35:19.445Z,67.14
2022-11-16T07:37:46.906Z,67.41
2022-11-16T07:40:14.356Z,67.44
2022-11-16T07:42:43.484Z,67.96
2022-11-16T07:45:11.936Z,67.82
2022-11-16T07:47:40.695Z,67.93
2022-11-16T07:50:10.668Z,67.90
2022-11-16T07:52:38.096Z,68.03
2022-11-16T07:55:06.343Z,68.06
2022-11-16T07:57:33.768Z,68.08
2022-11-16T08:00:01.386Z,68.16
2022-11-16T08:02:28.877Z,68.30
2022-11-16T08:04:57.654Z,68.38
2022-11-16T08:07:25.162Z,68.30
2022-11-16T08:09:52.668Z,68.20
2022-11-16T08:12:20.158Z,68.24
2022-11-16T08:14:47.620Z,68.21
2022-11-16T08:17:15.055Z,68.27
2022-11-16T08:19:43.169Z,68.30
2022-11-16T08:22:12.783Z,68.25
2022-11-16T08:24:40.222Z,68.36
2022-11-16T08:27:07.672Z,68.13
2022-11-16T08:29:35.129Z,68.32
2022-11-16T08:32:02.589Z,68.43
2022-11-16T08:34:30.006Z,68.38
2022-11-16T08:36:57.456Z,68.51
2022-11-16T08:39:26.207Z,68.30
2022-11-16T08:41:53.637Z,68.44
2022-11-16T08:44:21.077Z,68.00
2022-11-16T08:46:48.530Z,68.26
2022-11-16T08:49:16.208Z,68.08
2022-11-16T08:51:43.644Z,68.26
2022-11-16T08:54:11.073Z,68.14
2022-11-16T08:56:39.843Z,68.19
2022-11-16T08:59:07.305Z,68.04
2022-11-16T09:01:34.960Z,68.17
2022-11-16T09:04:02.441Z,68.19
2022-11-16T09:06:29.884Z,68.19
2022-11-16T09:08:57.462Z,67.98
2022-11-16T09:11:25.380Z,67.83
2022-11-16T09:13:54.826Z,68.16
2022-11-16T09:16:22.560Z,67.91
2022-11-16T09:18:50.369Z,67.74
2022-11-16T09:21:18.952Z,67.77
2022-11-16T09:23:46.857Z,68.10
2022-11-16T09:26:14.488Z,68.02
2022-11-16T09:28:41.964Z,67.95
2022-11-16T09:31:10.704Z,67.90
2022-11-16T09:33:38.518Z,68.12
2022-11-16T09:36:07.736Z,68.08
2022-11-16T09:39:03.244Z,68.42
2022-11-16T09:41:36.381Z,68.76
2022-11-16T09:44:07.469Z,68.59
2022-11-16T09:46:37.652Z,68.29
2022-11-16T09:49:13.962Z,68.06
2022-11-16T09:51:44.490Z,68.10
2022-11-16T09:54:13.161Z,68.33
2022-11-16T09:56:41.240Z,68.28
2022-11-16T09:59:17.956Z,68.48
2022-11-16T10:01:48.893Z,68.89
2022-11-16T10:04:18.149Z,69.95
2022-11-16T10:06:48.138Z,70.63
2022-11-16T10:09:15.619Z,70.64
2022-11-16T10:12:00.121Z,70.89
2022-11-16T10:14:38.332Z,70.79
2022-11-16T10:17:07.935Z,71.00
2022-11-16T10:19:39.273Z,70.98
2022-11-16T10:22:09.672Z,71.06
2022-11-16T10:24:43.224Z,71.03
2022-11-16T10:27:37.752Z,70.93
2022-11-16T10:30:09.684Z,70.43
2022-11-16T10:32:40.048Z,71.20
2022-11-16T10:35:23.613Z,71.63
2022-11-16T10:37:51.601Z,72.29
2022-11-16T10:40:22.101Z,72.14
2022-11-16T10:42:54.731Z,72.27
2022-11-16T10:45:24.100Z,72.55
2022-11-16T10:47:54.605Z,72.27
2022-11-16T10:50:31.717Z,71.84
2022-11-16T10:52:59.451Z,71.64
2022-11-16T10:55:28.560Z,71.63
2022-11-16T10:57:56.842Z,71.92
2022-11-16T11:00:35.243Z,71.21
2022-11-16T11:03:04.046Z,70.74
2022-11-16T11:05:31.521Z,70.37
2022-11-16T11:08:03.247Z,69.96
2022-11-16T11:10:31.823Z,71.36
2022-11-16T11:13:21.934Z,71.76
2022-11-16T11:15:51.170Z,71.69
2022-11-16T11:18:25.768Z,73.16
2022-11-16T11:21:01.325Z,72.72
2022-11-16T11:23:28.770Z,72.79
2022-11-16T11:25:56.801Z,72.64
2022-11-16T11:28:26.328Z,72.36
2022-11-16T11:30:59.017Z,72.48
2022-11-16T11:33:29.458Z,72.61
2022-11-16T11:36:02.574Z,71.38
2022-11-16T11:38:30.183Z,71.50
2022-11-16T11:40:59.283Z,71.46
2022-11-16T11:43:26.836Z,71.41
2022-11-16T11:45:56.248Z,71.34
2022-11-16T11:48:30.745Z,71.42
2022-11-16T11:50:58.899Z,71.43
2022-11-16T11:53:37.769Z,71.47
2022-11-16T11:56:05.627Z,71.11
2022-11-16T11:58:35.436Z,71.02
2022-11-16T12:01:33.268Z,71.00
2022-11-16T12:04:37.232Z,71.01
2022-11-16T12:07:07.447Z,70.77
2022-11-16T12:09:37.334Z,71.03
2022-11-16T12:12:14.796Z,71.01
2022-11-16T12:14:52.795Z,70.63
2022-11-16T12:17:22.775Z,70.58
2022-11-16T12:20:00.090Z,70.58
2022-11-16T12:22:38.471Z,70.63
2022-11-16T12:25:11.019Z,70.62
2022-11-16T12:27:41.277Z,70.54
2022-11-16T12:30:10.415Z,70.32
2022-11-16T12:32:50.816Z,69.72
2022-11-16T12:35:27.786Z,70.20
2022-11-16T12:37:57.935Z,70.36
2022-11-16T12:40:34.645Z,70.21
2022-11-16T12:43:05.305Z,70.48
2022-11-16T12:45:44.206Z,70.46
2022-11-16T12:48:23.012Z,70.55
2022-11-16T12:50:54.445Z,70.37
2022-11-16T12:53:34.790Z,70.60
2022-11-16T12:56:05.685Z,70.53
2022-11-16T12:58:43.768Z,70.33
2022-11-16T13:01:13.340Z,70.34
2022-11-16T13:03:42.960Z,69.96
2022-11-16T13:06:13.302Z,70.12
2022-11-16T13:08:50.835Z,70.11
2022-11-16T13:11:21.982Z,70.09
2022-11-16T13:13:53.699Z,70.28
2022-11-16T13:16:21.817Z,70.18
2022-11-16T13:18:49.287Z,70.18
2022-11-16T13:21:26.495Z,70.08
2022-11-16T13:24:00.990Z,70.02
2022-11-16T13:26:30.084Z,70.10
2022-11-16T13:28:59.605Z,70.06
2022-11-16T13:31:29.756Z,69.87
2022-11-16T13:33:58.412Z,70.08
2022-11-16T13:36:46.425Z,70.15
2022-11-16T13:39:21.596Z,69.93
2022-11-16T13:41:50.181Z,69.85
2022-11-16T13:44:28.817Z,69.82
2022-11-16T13:46:59.491Z,69.97
2022-11-16T13:51:51.504Z,69.88
2022-11-16T13:54:47.294Z,69.98
2022-11-16T13:57:22.361Z,70.12
2022-11-16T13:59:56.756Z,69.97
2022-11-16T14:02:29.847Z,69.99
2022-11-16T14:04:59.101Z,70.06
2022-11-16T14:07:36.298Z,69.99
2022-11-16T14:10:05.505Z,70.03
2022-11-16T14:12:57.126Z,69.98
2022-11-16T14:15:35.321Z,69.92
2022-11-16T14:18:24.323Z,69.94
2022-11-16T14:20:56.743Z,69.98
2022-11-16T14:23:58.844Z,69.85
2022-11-16T14:26:28.010Z,69.88
2022-11-16T14:29:03.918Z,69.81
2022-11-16T14:31:31.833Z,69.63
2022-11-16T14:34:00.393Z,69.68
2022-11-16T14:36:38.854Z,69.68
2022-11-16T14:39:27.295Z,69.81
2022-11-16T14:41:54.826Z,69.70
2022-11-16T14:44:23.175Z,69.67
2022-11-16T14:46:50.686Z,69.91
2022-11-16T14:49:18.375Z,69.87
2022-11-16T14:51:47.275Z,69.66
2022-11-16T14:54:16.698Z,69.74
2022-11-16T14:57:00.436Z,69.81
2022-11-16T14:59:28.107Z,69.79
2022-11-16T15:01:55.653Z,69.71
2022-11-16T15:04:23.941Z,69.96
2022-11-16T15:06:53.140Z,69.92
2022-11-16T15:09:23.522Z,70.11
2022-11-16T15:12:08.838Z,70.11
2022-11-16T15:14:39.222Z,69.83
2022-11-16T15:17:07.639Z,69.76
2022-11-16T15:19:35.075Z,70.00
2022-11-16T15:22:04.064Z,69.94
2022-11-16T15:24:32.596Z,69.74
2022-11-16T15:27:09.997Z,70.03
2022-11-16T15:29:38.821Z,69.93
2022-11-16T15:32:07.335Z,69.93
2022-11-16T15:34:34.846Z,70.00
2022-11-16T15:37:02.270Z,69.99
2022-11-16T15:39:31.805Z,69.76
2022-11-16T15:42:03.746Z,69.75
2022-11-16T15:44:31.965Z,69.88
2022-11-16T15:47:00.772Z,69.89
2022-11-16T15:49:29.971Z,69.70
2022-11-16T15:51:58.281Z,69.99
2022-11-16T15:54:26.732Z,69.93
2022-11-16T15:56:55.090Z,70.06
2022-11-16T15:59:25.030Z,70.01
2022-11-16T16:01:52.483Z,69.95
2022-11-16T16:04:21.226Z,69.88
2022-11-16T16:06:49.790Z,70.01
2022-11-16T16:09:25.374Z,69.92
2022-11-16T16:11:52.902Z,69.88
2022-11-16T16:14:25.564Z,69.80
2022-11-16T16:16:53.586Z,69.82
2022-11-16T16:19:36.916Z,69.81
2022-11-16T16:22:05.230Z,69.74
2022-11-16T16:24:37.911Z,69.61
2022-11-16T16:27:13.368Z,69.62
2022-11-16T16:29:40.832Z,69.68
2022-11-16T16:32:11.112Z,69.73
2022-11-16T16:34:42.431Z,69.63
2022-11-16T16:37:11.529Z,69.65
2022-11-16T16:39:39.755Z,69.60
2022-11-16T16:42:07.386Z,69.65
2022-11-16T16:44:34.821Z,69.64
2022-11-16T16:47:02.288Z,69.66
2022-11-16T16:49:29.715Z,69.63
2022-11-16T16:51:58.471Z,69.71
2022-11-16T16:54:25.932Z,69.56
2022-11-16T16:56:53.364Z,69.70
2022-11-16T16:59:20.823Z,69.68
2022-11-16T17:01:48.307Z,69.67
2022-11-16T17:04:15.754Z,69.57
2022-11-16T17:06:46.440Z,69.54
2022-11-16T17:09:15.564Z,69.41
2022-11-16T17:11:43.021Z,69.43
2022-11-16T17:14:10.495Z,69.25
2022-11-16T17:16:38.001Z,69.29
2022-11-16T17:19:05.708Z,69.25
2022-11-16T17:21:33.151Z,69.06
2022-11-16T17:24:00.618Z,69.19
2022-11-16T17:26:29.606Z,69.19
2022-11-16T17:28:57.281Z,69.14
2022-11-16T17:31:25.045Z,69.12
2022-11-16T17:33:52.518Z,69.05
2022-11-16T17:36:20.631Z,68.94
2022-11-16T17:38:48.085Z,69.18
2022-11-16T17:41:16.586Z,68.84
2022-11-16T17:43:46.331Z,68.94
2022-11-16T17:46:14.533Z,69.04
2022-11-16T17:48:43.201Z,69.02
2022-11-16T17:51:10.695Z,69.15
2022-11-16T17:53:39.790Z,68.94
2022-11-16T17:56:08.085Z,69.07
2022-11-16T17:58:35.527Z,69.15
2022-11-16T18:01:04.375Z,69.09
2022-11-16T18:03:32.198Z,69.19
2022-11-16T18:06:03.540Z,69.01
2022-11-16T18:08:31.040Z,68.96
2022-11-16T18:10:58.487Z,69.10
2022-11-16T18:13:25.949Z,69.05
2022-11-16T18:15:53.397Z,69.03
2022-11-16T18:18:22.381Z,69.17
2022-11-16T18:20:50.754Z,69.07
2022-11-16T18:23:18.212Z,69.11
2022-11-16T18:25:45.653Z,68.93
2022-11-16T18:28:13.103Z,69.03
2022-11-16T18:30:40.565Z,69.13
2022-11-16T18:33:08.017Z,68.93
2022-11-16T18:35:36.817Z,69.14
2022-11-16T18:38:05.481Z,68.91
2022-11-16T18:40:32.930Z,69.16
2022-11-16T18:43:00.418Z,69.11
2022-11-16T18:45:27.916Z,68.87
2022-11-16T18:47:55.393Z,69.00
2022-11-16T18:50:26.858Z,68.77
2022-11-16T18:52:57.267Z,68.96
2022-11-16T18:55:24.568Z,68.98
2022-11-16T18:57:52.077Z,68.87
2022-11-16T19:00:20.181Z,68.84
2022-11-16T19:02:47.608Z,68.81
2022-11-16T19:05:15.152Z,68.93
2022-11-16T19:07:42.601Z,68.92
2022-11-16T19:10:11.848Z,68.88
2022-11-16T19:12:39.333Z,68.85
2022-11-16T19:15:07.637Z,68.93
2022-11-16T19:17:43.695Z,68.89
2022-11-16T19:20:22.489Z,68.87
2022-11-16T19:22:49.947Z,68.96
2022-11-16T19:25:18.923Z,68.75
2022-11-16T19:27:46.368Z,68.99
2022-11-16T19:30:14.040Z,68.96
2022-11-16T19:32:41.460Z,69.05
2022-11-16T19:35:10.745Z,68.86
2022-11-16T19:37:38.219Z,68.88
2022-11-16T19:40:06.682Z,69.00
2022-11-16T19:42:35.442Z,68.98
2022-11-16T19:45:02.948Z,69.04
2022-11-16T19:47:30.573Z,68.85
2022-11-16T19:49:58.040Z,68.87
2022-11-16T19:52:25.509Z,68.75
2022-11-16T19:54:53.031Z,68.61
2022-11-16T19:57:20.556Z,68.56
2022-11-16T19:59:49.326Z,68.48
2022-11-16T20:02:16.801Z,68.58
2022-11-16T20:04:44.271Z,68.58
2022-11-16T20:07:13.345Z,68.77
2022-11-16T20:09:40.828Z,68.44
2022-11-16T20:12:08.365Z,68.55
2022-11-16T20:14:35.838Z,68.53
2022-11-16T20:17:04.904Z,68.40
2022-11-16T20:19:32.341Z,68.56
2022-11-16T20:22:00.345Z,68.15
2022-11-16T20:24:27.809Z,68.33
2022-11-16T20:26:55.287Z,68.32
2022-11-16T20:29:22.880Z,68.70
2022-11-16T20:31:50.351Z,68.41
2022-11-16T20:34:20.646Z,68.30
2022-11-16T20:36:49.583Z,68.13
2022-11-16T20:39:18.109Z,68.15
2022-11-16T20:41:45.728Z,67.66
2022-11-16T20:44:16.608Z,67.90
2022-11-16T20:46:44.972Z,68.14
2022-11-16T20:49:12.471Z,68.08
2022-11-16T20:51:41.287Z,67.63
2022-11-16T20:54:08.738Z,67.81
2022-11-16T20:56:36.182Z,67.89
2022-11-16T20:59:03.603Z,67.83
2022-11-16T21:01:32.214Z,67.97
2022-11-16T21:04:00.579Z,68.17
2022-11-16T21:06:28.180Z,67.89
2022-11-16T21:08:56.953Z,67.96
2022-11-16T21:11:25.612Z,67.83
2022-11-16T21:14:11.027Z,67.68
2022-11-16T21:16:38.549Z,67.68
2022-11-16T21:19:06.134Z,67.85
2022-11-16T21:21:33.907Z,67.74
2022-11-16T21:24:02.682Z,67.88
2022-11-16T21:26:30.828Z,68.02
2022-11-16T21:28:58.838Z,67.92
2022-11-16T21:31:27.157Z,67.90
2022-11-16T21:33:54.848Z,67.89
2022-11-16T21:36:23.047Z,67.75
2022-11-16T21:38:50.624Z,67.56
2022-11-16T21:41:20.252Z,67.84
2022-11-16T21:43:47.730Z,67.68
2022-11-16T21:46:16.104Z,67.70
2022-11-16T21:48:43.570Z,67.83
2022-11-16T21:51:11.774Z,67.38
2022-11-16T21:53:39.231Z,67.55
2022-11-16T21:56:07.712Z,67.62
2022-11-16T21:58:36.501Z,67.79
2022-11-16T22:01:03.993Z,67.69
2022-11-16T22:03:32.188Z,67.91
2022-11-16T22:06:18.540Z,67.68
2022-11-16T22:08:46.050Z,67.47
2022-11-16T22:11:13.645Z,67.31
2022-11-16T22:13:42.447Z,67.45
2022-11-16T22:16:10.952Z,67.45
2022-11-16T22:18:38.475Z,67.35
2022-11-16T22:21:06.395Z,67.38
2022-11-16T22:23:34.050Z,67.42
2022-11-16T22:26:02.253Z,67.65
2022-11-16T22:28:29.928Z,67.46
2022-11-16T22:31:02.419Z,67.57
2022-11-16T22:33:29.912Z,67.37
2022-11-16T22:35:57.452Z,67.54
2022-11-16T22:38:24.921Z,67.42
2022-11-16T22:40:52.564Z,67.63
2022-11-16T22:43:20.214Z,67.58
2022-11-16T22:45:47.639Z,67.51
2022-11-16T22:48:16.392Z,67.54
2022-11-16T22:50:43.872Z,67.54
2022-11-16T22:53:11.313Z,67.54
2022-11-16T22:55:39.071Z,67.60
2022-11-16T22:58:06.521Z,67.56
2022-11-16T23:00:38.898Z,67.65
2022-11-16T23:03:08.352Z,67.49
2022-11-16T23:05:37.140Z,67.57
2022-11-16T23:08:04.592Z,67.41
2022-11-16T23:10:52.059Z,67.40
2022-11-16T23:13:37.564Z,67.46
2022-11-16T23:16:05.199Z,67.35
2022-11-16T23:18:32.612Z,67.32
2022-11-16T23:21:18.988Z,67.38
2022-11-16T23:24:04.346Z,67.44
2022-11-16T23:26:49.646Z,67.39
2022-11-16T23:29:17.075Z,66.89
2022-11-16T23:31:45.265Z,66.96
2022-11-16T23:34:12.725Z,66.87
2022-11-16T23:36:41.499Z,67.03
2022-11-16T23:39:08.986Z,67.03
2022-11-16T23:41:53.897Z,66.83
2022-11-16T23:44:21.321Z,67.18
2022-11-16T23:46:48.776Z,67.01
2022-11-16T23:49:16.208Z,66.92
2022-11-16T23:51:44.976Z,66.88
2022-11-16T23:54:12.412Z,66.58
2022-11-16T23:56:39.869Z,66.75
2022-11-16T23:59:07.355Z,66.76
